Impacts TAF Board
For situational awareness. Not to be used for flight planning purposes.
IDs:

KPVW - Plainview/Hale Cnty, TX, US

Issued at 1120 UTC 03 Dec 2021
Updated at 1711 UTC 03 Dec 2021
Potential Impact None Slight Moderate High
Time1655Z 03/18Z 03/19Z 03/20Z 03/21Z 03/22Z 03/23Z 04/00Z 04/01Z 04/02Z 04/03Z 04/04Z 04/05Z 04/06Z>>
Type OBS PRVL PRVL PRVL PRVL PRVL PRVL PRVL PRVL PRVL PRVL PRVL PRVL PRVL
VIS 10 >6 >6 >6 >6 >6 >6 >6 >6 >6 >6 >6 >6 >6
CIG -- -- -- -- -- -- -- -- -- -- -- -- -- --
Cover CLR FEW FEW FEW FEW FEW FEW FEW FEW FEW FEW FEW FEW FEW
FltCat VFR VFR VFR VFR VFR VFR VFR VFR VFR VFR VFR VFR VFR VFR
WX -- -- -- -- -- -- -- -- -- -- -- -- -- --
WDir 260 260 260 260 260 260 260 260 350 350 350 350 350 350
WSpd 16 18 18 18 18 18 18 18 11 11 11 11 11 11
WGst 21 -- -- -- -- -- -- -- -- -- -- -- -- --
WSHgt -- -- -- -- -- -- -- -- -- -- -- -- -- --
WSDir -- -- -- -- -- -- -- -- -- -- -- -- -- --
WSSpd -- -- -- -- -- -- -- -- -- -- -- -- -- --
Raw TAF
KPVW 031120Z 0312/0412 24011KT P6SM FEW250
  FM031800 26018KT P6SM FEW250
  FM040100 35011KT P6SM FEW250


Raw METAR
KPVW 031655Z AUTO 26016G21KT 10SM CLR 21/M02 A3001 RMK AO2 T02051017
KPVW 031635Z AUTO 26016G21KT 10SM CLR 20/M01 A3000 RMK AO2 T01951010
KPVW 031615Z AUTO 25014KT 10SM CLR 18/00 A3000 RMK AO2 T01810000
KPVW 031555Z AUTO 25013G18KT 10SM CLR 17/00 A3000 RMK AO2 T01650000
KPVW 031535Z AUTO 25015KT 10SM CLR 16/01 A2999 RMK AO2 T01570005
KPVW 031515Z AUTO 25009KT 10SM CLR 14/01 A2999 RMK AO2 T01350005
KPVW 031455Z AUTO 24008KT 10SM CLR 11/00 A2999 RMK AO2 T01130002
KPVW 031435Z AUTO 24008KT 10SM CLR 09/00 A2999 RMK AO2 T00880001

METAR Board
For situational awareness. Not to be used for flight planning purposes.